createdAt,value
2023-01-09T00:01:59.820Z,3.90
2023-01-09T00:04:26.592Z,3.95
2023-01-09T00:06:56.420Z,3.99
2023-01-09T00:09:23.959Z,4.00
2023-01-09T00:11:50.861Z,3.98
2023-01-09T00:14:17.751Z,3.95
2023-01-09T00:16:44.784Z,3.95
2023-01-09T00:19:11.670Z,3.96
2023-01-09T00:21:38.531Z,3.95
2023-01-09T00:24:05.591Z,3.95
2023-01-09T00:26:32.400Z,4.00
2023-01-09T00:29:00.264Z,4.06
2023-01-09T00:31:27.047Z,4.08
2023-01-09T00:34:00.713Z,4.15
2023-01-09T00:36:27.663Z,4.22
2023-01-09T00:38:54.412Z,4.25
2023-01-09T00:41:24.121Z,4.29
2023-01-09T00:43:53.397Z,4.31
2023-01-09T00:46:20.932Z,4.32
2023-01-09T00:48:47.954Z,4.30
2023-01-09T00:51:14.699Z,4.30
2023-01-09T00:53:41.587Z,4.27
2023-01-09T00:56:11.428Z,4.26
2023-01-09T00:58:38.395Z,4.30
2023-01-09T01:01:05.582Z,4.30
2023-01-09T01:03:32.506Z,4.32
2023-01-09T01:06:17.836Z,4.36
2023-01-09T01:08:45.889Z,4.44
2023-01-09T01:11:13.078Z,4.50
2023-01-09T01:13:40.169Z,4.56
2023-01-09T01:16:08.940Z,4.58
2023-01-09T01:18:35.838Z,4.62
2023-01-09T01:21:07.266Z,4.66
2023-01-09T01:23:34.215Z,4.70
2023-01-09T01:26:06.079Z,4.75
2023-01-09T01:28:33.019Z,4.81
2023-01-09T01:31:00.299Z,4.83
2023-01-09T01:33:27.176Z,4.83
2023-01-09T01:36:20.310Z,4.87
2023-01-09T01:38:47.710Z,4.92
2023-01-09T01:41:14.709Z,4.94
2023-01-09T01:43:56.479Z,4.96
2023-01-09T01:46:23.499Z,4.94
2023-01-09T01:48:54.047Z,4.89
2023-01-09T01:51:21.049Z,4.84
2023-01-09T01:53:49.568Z,4.82
2023-01-09T01:56:17.279Z,4.77
2023-01-09T01:58:52.628Z,4.76
2023-01-09T02:01:19.972Z,4.81
2023-01-09T02:03:47.504Z,4.84
2023-01-09T02:06:15.026Z,4.88
2023-01-09T02:08:41.922Z,4.93
2023-01-09T02:11:09.609Z,4.97
2023-01-09T02:13:38.688Z,5.02
2023-01-09T02:16:10.509Z,5.08
2023-01-09T02:18:48.001Z,5.12
2023-01-09T02:21:31.024Z,5.14
2023-01-09T02:24:14.973Z,5.19
2023-01-09T02:27:24.285Z,5.26
2023-01-09T02:30:34.834Z,5.31
2023-01-09T02:33:37.639Z,5.39
2023-01-09T02:36:08.919Z,5.45
2023-01-09T02:38:48.183Z,5.47
2023-01-09T02:41:17.566Z,5.48
2023-01-09T02:43:44.462Z,5.49
2023-01-09T02:46:20.610Z,5.49
2023-01-09T02:48:49.811Z,5.51
2023-01-09T02:51:51.442Z,5.53
2023-01-09T02:55:00.469Z,5.54
2023-01-09T02:57:54.054Z,5.59
2023-01-09T03:00:55.526Z,5.61
2023-01-09T03:03:56.712Z,5.62
2023-01-09T03:06:35.458Z,5.56
2023-01-09T03:09:14.532Z,5.45
2023-01-09T03:11:47.331Z,5.31
2023-01-09T03:14:18.849Z,5.22
2023-01-09T03:17:38.525Z,5.12
2023-01-09T03:20:09.475Z,4.98
2023-01-09T03:22:46.554Z,4.91
2023-01-09T03:25:18.319Z,4.87
2023-01-09T03:27:47.033Z,4.83
2023-01-09T03:30:16.587Z,4.81
2023-01-09T03:32:46.162Z,4.81
2023-01-09T03:35:14.912Z,4.81
2023-01-09T03:37:44.572Z,4.82
2023-01-09T03:40:13.903Z,4.81
2023-01-09T03:42:43.444Z,4.78
2023-01-09T03:45:13.540Z,4.72
2023-01-09T03:47:44.015Z,4.63
2023-01-09T03:50:14.562Z,4.55
2023-01-09T04:00:21.071Z,4.44
2023-01-09T04:02:47.862Z,4.42
2023-01-09T04:05:14.765Z,4.43
2023-01-09T04:07:41.572Z,4.42
2023-01-09T04:10:09.533Z,4.41
2023-01-09T04:12:36.213Z,4.39
2023-01-09T04:15:03.034Z,4.35
2023-01-09T04:17:29.933Z,4.30
2023-01-09T04:19:56.615Z,4.25
2023-01-09T04:22:23.540Z,4.21
2023-01-09T04:24:50.335Z,4.18
2023-01-09T04:27:17.132Z,4.16
2023-01-09T04:29:43.833Z,4.17
2023-01-09T04:32:10.731Z,4.19
2023-01-09T04:34:37.465Z,4.21
2023-01-09T04:37:04.319Z,4.25
2023-01-09T04:39:31.061Z,4.27
2023-01-09T04:41:58.047Z,4.28
2023-01-09T04:44:28.249Z,4.29
2023-01-09T04:46:56.204Z,4.30
2023-01-09T04:49:22.985Z,4.30
2023-01-09T04:51:49.845Z,4.32
2023-01-09T04:54:16.656Z,4.36
2023-01-09T04:56:43.783Z,4.40
2023-01-09T04:59:10.438Z,4.47
2023-01-09T05:01:37.460Z,4.57
2023-01-09T05:04:04.799Z,4.66
2023-01-09T05:06:47.191Z,4.80
2023-01-09T05:09:14.170Z,4.92
2023-01-09T05:11:40.876Z,5.04
2023-01-09T05:14:07.693Z,5.18
2023-01-09T05:16:34.532Z,5.29
2023-01-09T05:19:01.469Z,5.40
2023-01-09T05:21:28.179Z,5.49
2023-01-09T05:23:55.169Z,5.56
2023-01-09T05:26:24.250Z,5.62
2023-01-09T05:28:52.331Z,5.67
2023-01-09T05:31:19.792Z,5.70
2023-01-09T05:33:47.504Z,5.71
2023-01-09T05:36:14.445Z,5.71
2023-01-09T05:38:41.337Z,5.69
2023-01-09T05:41:08.039Z,5.64
2023-01-09T05:43:35.126Z,5.60
2023-01-09T05:46:02.042Z,5.57
2023-01-09T05:48:28.926Z,5.56
2023-01-09T05:50:55.751Z,5.54
2023-01-09T05:53:22.676Z,5.52
2023-01-09T05:55:49.382Z,5.49
2023-01-09T05:58:16.114Z,5.46
2023-01-09T06:00:43.107Z,5.46
2023-01-09T06:03:09.757Z,5.47
2023-01-09T06:05:36.547Z,5.48
2023-01-09T06:08:03.537Z,5.48
2023-01-09T06:10:30.244Z,5.51
2023-01-09T06:12:57.166Z,5.54
2023-01-09T06:15:23.972Z,5.58
2023-01-09T06:17:50.873Z,5.63
2023-01-09T06:20:17.953Z,5.68
2023-01-09T06:22:45.461Z,5.72
2023-01-09T06:25:12.794Z,5.76
2023-01-09T06:27:39.584Z,5.81
2023-01-09T06:30:08.669Z,5.86
2023-01-09T06:32:36.801Z,5.92
2023-01-09T06:35:04.157Z,5.97
2023-01-09T06:37:31.376Z,6.03
2023-01-09T06:39:58.207Z,6.08
2023-01-09T06:42:25.130Z,6.11
2023-01-09T06:44:51.981Z,6.13
2023-01-09T06:47:18.769Z,6.15
2023-01-09T06:49:45.491Z,6.14
2023-01-09T06:52:12.361Z,6.13
2023-01-09T06:54:39.278Z,6.12
2023-01-09T06:57:06.282Z,6.12
2023-01-09T06:59:33.310Z,6.14
2023-01-09T07:02:00.099Z,6.19
2023-01-09T07:04:27.346Z,6.34
2023-01-09T07:06:56.640Z,6.52
2023-01-09T07:09:23.625Z,6.76
2023-01-09T07:11:50.573Z,7.00
2023-01-09T07:14:17.520Z,7.21
2023-01-09T07:16:44.402Z,7.38
2023-01-09T07:19:11.416Z,7.55
2023-01-09T07:21:38.213Z,7.69
2023-01-09T07:24:05.193Z,7.82
2023-01-09T07:26:32.394Z,7.92
2023-01-09T07:28:59.339Z,8.01
2023-01-09T07:31:26.439Z,8.10
2023-01-09T07:33:53.592Z,8.21
2023-01-09T07:36:20.743Z,8.31
2023-01-09T07:38:47.849Z,8.40
2023-01-09T07:41:15.544Z,8.49
2023-01-09T07:43:42.736Z,8.57
2023-01-09T07:46:09.993Z,8.64
2023-01-09T07:48:36.896Z,8.69
2023-01-09T07:51:06.618Z,8.74
2023-01-09T07:53:35.625Z,8.79
2023-01-09T07:56:02.767Z,8.83
2023-01-09T07:58:30.391Z,8.86
2023-01-09T08:00:57.358Z,8.89
2023-01-09T08:03:27.670Z,8.92
2023-01-09T08:06:11.563Z,8.96
2023-01-09T08:08:41.735Z,9.01
2023-01-09T08:11:40.573Z,9.05
2023-01-09T08:14:48.931Z,9.09
2023-01-09T08:17:28.348Z,9.14
2023-01-09T08:20:13.848Z,9.17
2023-01-09T08:23:55.113Z,9.22
2023-01-09T08:27:35.673Z,9.32
2023-01-09T08:31:28.551Z,9.40
2023-01-09T08:34:49.925Z,9.46
2023-01-09T08:37:31.773Z,9.47
2023-01-09T08:40:27.321Z,9.48
2023-01-09T08:43:14.732Z,9.49
2023-01-09T08:46:19.179Z,9.48
2023-01-09T08:49:22.951Z,9.50
2023-01-09T08:52:34.449Z,9.50
2023-01-09T08:55:43.092Z,9.51
2023-01-09T08:58:32.010Z,9.52
2023-01-09T09:05:27.367Z,9.56
2023-01-09T11:19:34.174Z,8.93
2023-01-09T11:22:10.158Z,9.33
2023-01-09T11:24:39.076Z,9.37
2023-01-09T11:27:27.423Z,9.39
2023-01-09T11:30:20.600Z,9.41
2023-01-09T11:32:47.580Z,9.41
2023-01-09T11:35:29.008Z,9.41
2023-01-09T11:38:06.928Z,9.42
2023-01-09T11:40:38.339Z,9.44
2023-01-09T11:43:13.413Z,9.44
2023-01-09T11:46:00.170Z,9.44
2023-01-09T11:48:54.348Z,9.43
2023-01-09T11:51:33.076Z,9.42
2023-01-09T11:54:08.502Z,9.40
2023-01-09T11:56:36.634Z,9.41
2023-01-09T11:59:11.602Z,9.44
2023-01-09T12:01:51.872Z,9.47
2023-01-09T12:04:28.866Z,9.53
2023-01-09T12:06:55.745Z,9.58
2023-01-09T12:09:37.561Z,9.60
2023-01-09T12:12:18.498Z,9.61
2023-01-09T12:15:18.711Z,9.63
2023-01-09T12:17:58.175Z,9.66
2023-01-09T12:20:38.909Z,9.68
2023-01-09T12:23:16.086Z,9.72
2023-01-09T12:26:05.870Z,9.75
2023-01-09T12:28:43.106Z,9.80
2023-01-09T12:31:31.169Z,9.84
2023-01-09T12:34:26.083Z,9.87
2023-01-09T12:37:27.119Z,9.90
2023-01-09T12:40:17.269Z,9.95
2023-01-09T12:43:00.210Z,9.98
2023-01-09T12:46:01.336Z,10.00
2023-01-09T12:48:58.968Z,10.02
2023-01-09T12:51:49.050Z,10.01
2023-01-09T12:54:45.203Z,9.98
2023-01-09T12:57:43.669Z,9.96
2023-01-09T13:00:41.622Z,9.95
2023-01-09T13:03:56.266Z,9.91
2023-01-09T13:11:32.336Z,9.82
2023-01-09T13:14:16.402Z,9.81
2023-01-09T13:16:58.689Z,9.81
2023-01-09T13:19:40.792Z,9.83
2023-01-09T13:22:11.967Z,9.83
2023-01-09T13:24:55.819Z,9.82
2023-01-09T13:27:28.824Z,9.82
2023-01-09T13:30:24.163Z,9.80
2023-01-09T13:33:32.340Z,9.79
2023-01-09T13:36:07.847Z,9.79
2023-01-09T13:38:42.642Z,9.79
2023-01-09T13:41:45.698Z,9.80
2023-01-09T13:44:25.199Z,9.81
2023-01-09T13:47:00.184Z,9.83
2023-01-09T13:49:51.659Z,9.85
2023-01-09T13:52:43.626Z,9.89
2023-01-09T13:55:16.705Z,9.90
2023-01-09T13:57:43.624Z,9.81
2023-01-09T14:00:14.617Z,9.67
2023-01-09T14:02:42.675Z,9.50
2023-01-09T14:05:36.708Z,9.31
2023-01-09T14:08:06.300Z,9.17
2023-01-09T14:10:53.409Z,9.05
2023-01-09T14:13:27.058Z,8.98
2023-01-09T14:16:03.968Z,8.93
2023-01-09T14:18:32.054Z,8.87
2023-01-09T14:21:03.427Z,8.77
2023-01-09T14:23:52.773Z,8.72
2023-01-09T14:26:25.230Z,8.67
2023-01-09T14:28:52.160Z,8.62
2023-01-09T14:31:32.685Z,8.59
2023-01-09T14:34:30.983Z,8.57
2023-01-09T14:37:02.470Z,8.57
2023-01-09T14:39:30.419Z,8.57
2023-01-09T14:42:00.558Z,8.57
2023-01-09T14:44:29.823Z,8.56
2023-01-09T14:47:00.033Z,8.50
2023-01-09T14:49:56.382Z,8.42
2023-01-09T14:52:27.843Z,8.34
2023-01-09T14:54:57.984Z,8.27
2023-01-09T14:57:25.493Z,8.21
2023-01-09T15:00:06.744Z,8.14
2023-01-09T15:02:36.052Z,8.12
2023-01-09T15:05:17.455Z,8.10
2023-01-09T15:07:50.016Z,8.06
2023-01-09T15:10:21.551Z,8.05
2023-01-09T15:12:50.240Z,8.06
2023-01-09T15:15:17.525Z,8.07
2023-01-09T15:17:46.600Z,8.07
2023-01-09T15:20:18.882Z,8.04
2023-01-09T15:22:52.787Z,8.03
2023-01-09T15:25:38.921Z,8.03
2023-01-09T15:28:27.602Z,8.03
2023-01-09T15:31:01.409Z,8.03
2023-01-09T15:33:28.491Z,8.04
2023-01-09T15:36:00.327Z,8.07
2023-01-09T15:38:27.864Z,8.13
2023-01-09T15:40:57.689Z,8.18
2023-01-09T15:43:26.388Z,8.17
2023-01-09T15:45:53.600Z,8.08
2023-01-09T15:48:26.918Z,7.94
2023-01-09T15:50:58.723Z,7.77
2023-01-09T15:53:27.027Z,7.66
2023-01-09T15:56:04.358Z,7.59
2023-01-09T15:58:46.987Z,7.48
2023-01-09T16:01:33.904Z,7.46
2023-01-09T16:04:08.376Z,7.51
2023-01-09T16:06:37.559Z,7.50
2023-01-09T16:09:05.422Z,7.51
2023-01-09T16:11:33.269Z,7.51
2023-01-09T16:14:22.057Z,7.53
2023-01-09T16:16:51.249Z,7.57
2023-01-09T16:19:28.645Z,7.58
2023-01-09T16:22:02.383Z,7.62
2023-01-09T16:24:40.805Z,7.64
2023-01-09T16:27:12.980Z,7.62
2023-01-09T16:29:45.122Z,7.59
2023-01-09T16:32:18.764Z,7.60
2023-01-09T16:34:47.228Z,7.64
2023-01-09T16:37:15.146Z,7.66
2023-01-09T16:39:43.155Z,7.72
2023-01-09T16:42:28.782Z,7.72
2023-01-09T16:44:56.126Z,7.75
2023-01-09T16:47:24.316Z,7.76
2023-01-09T16:49:51.644Z,7.76
2023-01-09T16:52:18.892Z,7.74
2023-01-09T16:54:47.425Z,7.72
2023-01-09T16:57:17.781Z,7.77
2023-01-09T16:59:46.260Z,7.78
2023-01-09T17:02:19.978Z,7.79
2023-01-09T17:04:47.096Z,7.77
2023-01-09T17:07:16.201Z,7.78
2023-01-09T17:09:46.434Z,7.80
2023-01-09T17:12:21.178Z,7.84
2023-01-09T17:14:54.200Z,7.91
2023-01-09T17:17:27.147Z,7.82
2023-01-09T17:19:57.163Z,7.90
2023-01-09T17:22:26.712Z,7.87
2023-01-09T17:25:13.596Z,7.86
2023-01-09T17:28:02.122Z,7.83
2023-01-09T17:30:33.094Z,7.88
2023-01-09T17:33:05.260Z,7.91
2023-01-09T17:35:36.200Z,7.89
2023-01-09T17:38:07.210Z,7.90
2023-01-09T17:40:38.191Z,7.93
2023-01-09T17:43:11.345Z,7.94
2023-01-09T17:45:42.244Z,7.94
2023-01-09T17:48:25.224Z,7.97
2023-01-09T17:50:55.218Z,7.98
2023-01-09T17:53:26.268Z,7.98
2023-01-09T17:55:57.165Z,8.01
2023-01-09T17:58:31.279Z,8.05
2023-01-09T18:01:01.749Z,8.08
2023-01-09T18:03:33.485Z,8.12
2023-01-09T18:06:03.670Z,8.17
2023-01-09T18:14:29.138Z,8.53
2023-01-09T18:16:56.333Z,8.57
2023-01-09T18:19:25.405Z,8.59
2023-01-09T18:21:52.433Z,8.60
2023-01-09T18:24:20.052Z,8.61
2023-01-09T18:26:47.057Z,8.61
2023-01-09T18:29:15.381Z,8.57
2023-01-09T18:31:42.711Z,8.53
2023-01-09T18:34:09.812Z,8.56
2023-01-09T18:36:37.347Z,8.59
2023-01-09T18:39:04.993Z,8.62
2023-01-09T18:41:34.242Z,8.62
2023-01-09T18:44:01.600Z,8.61
2023-01-09T18:46:33.759Z,8.64
2023-01-09T18:49:03.056Z,8.68
2023-01-09T18:51:30.266Z,8.72
2023-01-09T18:53:57.342Z,8.77
2023-01-09T18:56:24.930Z,8.69
2023-01-09T18:58:59.061Z,8.49
2023-01-09T19:01:27.444Z,8.29
2023-01-09T19:03:57.123Z,8.11
2023-01-09T19:06:24.353Z,7.95
2023-01-09T19:09:00.436Z,7.88
2023-01-09T19:11:28.178Z,7.84
2023-01-09T19:13:57.564Z,7.77
2023-01-09T19:16:24.665Z,7.73
2023-01-09T19:18:54.547Z,7.66
2023-01-09T19:21:26.919Z,7.62
2023-01-09T19:23:55.021Z,7.60
2023-01-09T19:26:29.754Z,7.62
2023-01-09T19:29:01.761Z,7.63
2023-01-09T19:31:29.364Z,7.62
2023-01-09T19:33:59.066Z,7.61
2023-01-09T19:36:30.985Z,7.61
2023-01-09T19:39:00.072Z,7.59
2023-01-09T19:41:28.308Z,7.53
2023-01-09T19:43:58.903Z,7.47
2023-01-09T19:46:26.186Z,7.45
2023-01-09T19:48:58.439Z,7.47
2023-01-09T19:51:27.812Z,7.58
2023-01-09T19:56:32.544Z,7.63
2023-01-09T19:59:00.952Z,7.67
2023-01-09T20:01:33.299Z,7.67
2023-01-09T20:04:07.082Z,7.59
2023-01-09T20:06:43.456Z,7.45
2023-01-09T20:09:19.155Z,7.34
2023-01-09T20:11:50.292Z,7.28
2023-01-09T20:14:23.693Z,7.23
2023-01-09T20:17:00.677Z,7.20
2023-01-09T20:19:28.708Z,7.15
2023-01-09T20:21:55.987Z,7.11
2023-01-09T20:24:23.055Z,7.05
2023-01-09T20:26:51.715Z,7.00
2023-01-09T20:29:19.423Z,6.97
2023-01-09T20:31:46.666Z,6.93
2023-01-09T20:34:17.142Z,6.89
2023-01-09T20:36:44.391Z,6.85
2023-01-09T20:39:14.033Z,6.81
2023-01-09T20:41:43.845Z,6.78
2023-01-09T20:44:13.771Z,6.78
2023-01-09T20:46:47.510Z,6.78
2023-01-09T20:49:18.394Z,6.78
2023-01-09T20:59:23.200Z,6.76
2023-01-09T21:01:52.603Z,6.75
2023-01-09T21:04:23.195Z,6.73
2023-01-09T21:11:37.161Z,6.70
2023-01-09T21:14:04.166Z,6.68
2023-01-09T21:16:31.528Z,6.67
2023-01-09T21:18:59.152Z,6.66
2023-01-09T21:21:27.747Z,6.65
2023-01-09T21:23:56.772Z,6.66
2023-01-09T21:26:27.508Z,6.68
2023-01-09T21:28:55.463Z,6.69
2023-01-09T21:31:35.783Z,6.71
2023-01-09T21:34:05.094Z,6.71
2023-01-09T21:36:33.624Z,6.68
2023-01-09T21:39:00.713Z,6.68
2023-01-09T21:41:46.723Z,6.67
2023-01-09T21:44:32.669Z,6.66
2023-01-09T21:47:00.967Z,6.69
2023-01-09T21:49:31.319Z,6.71
2023-01-09T21:51:59.910Z,6.73
2023-01-09T21:54:27.024Z,6.80
2023-01-09T21:56:54.654Z,6.83
2023-01-09T21:59:21.623Z,6.86
2023-01-09T22:01:49.495Z,6.87
2023-01-09T22:04:20.745Z,6.89
2023-01-09T22:06:47.682Z,6.90
2023-01-09T22:09:14.747Z,6.91
2023-01-09T22:11:41.896Z,6.92
2023-01-09T22:14:13.331Z,6.93
2023-01-09T22:16:41.401Z,6.94
2023-01-09T22:19:08.559Z,6.95
2023-01-09T22:21:35.351Z,6.93
2023-01-09T22:24:02.482Z,6.94
2023-01-09T22:26:29.599Z,6.92
2023-01-09T22:28:57.095Z,6.90
2023-01-09T22:31:25.883Z,6.89
2023-01-09T22:33:53.668Z,6.88
2023-01-09T22:36:20.790Z,6.86
2023-01-09T22:46:11.686Z,6.77
2023-01-09T22:48:39.633Z,6.74
2023-01-09T22:51:08.646Z,6.71
2023-01-09T22:53:35.475Z,6.63
2023-01-09T22:56:04.524Z,6.55
2023-01-09T22:58:31.824Z,6.52
2023-01-09T23:00:58.639Z,6.53
2023-01-09T23:03:25.732Z,6.49
2023-01-09T23:06:03.021Z,6.42
2023-01-09T23:08:32.178Z,6.36
2023-01-09T23:10:59.094Z,6.29
2023-01-09T23:13:25.982Z,6.24
2023-01-09T23:15:53.115Z,6.24
2023-01-09T23:18:20.189Z,6.24
2023-01-09T23:20:52.135Z,6.23
2023-01-09T23:23:20.987Z,6.23
2023-01-09T23:25:49.571Z,6.25
2023-01-09T23:28:16.432Z,6.25
2023-01-09T23:30:44.068Z,6.22
2023-01-09T23:33:11.265Z,6.22
2023-01-09T23:35:38.073Z,6.19
2023-01-09T23:38:04.881Z,6.19
2023-01-09T23:40:31.653Z,6.18
2023-01-09T23:43:10.677Z,6.15
2023-01-09T23:45:42.732Z,6.12
2023-01-09T23:48:13.689Z,6.09
2023-01-09T23:50:53.801Z,6.08
2023-01-09T23:53:21.418Z,6.04
2023-01-09T23:55:49.117Z,6.04
2023-01-09T23:58:15.932Z,6.04
